createdAt,value
2023-02-15T00:00:09.100Z,5.00
2023-02-15T00:02:36.104Z,4.90
2023-02-15T00:05:03.188Z,4.90
2023-02-15T00:07:30.336Z,4.90
2023-02-15T00:09:57.318Z,4.80
2023-02-15T00:12:24.372Z,4.80
2023-02-15T00:14:51.300Z,4.80
2023-02-15T00:17:18.373Z,4.80
2023-02-15T00:19:45.413Z,4.80
2023-02-15T00:22:12.955Z,4.80
2023-02-15T00:24:40.054Z,4.80
2023-02-15T00:27:07.040Z,4.70
2023-02-15T00:29:34.089Z,4.70
2023-02-15T00:32:01.123Z,4.80
2023-02-15T00:34:29.635Z,4.80
2023-02-15T00:36:57.807Z,4.70
2023-02-15T00:39:25.319Z,4.70
2023-02-15T00:41:52.234Z,4.70
2023-02-15T00:44:19.327Z,4.70
2023-02-15T00:46:46.459Z,4.70
2023-02-15T00:49:13.638Z,4.70
2023-02-15T00:51:40.757Z,4.60
2023-02-15T00:54:08.480Z,4.60
2023-02-15T00:56:35.507Z,4.60
2023-02-15T00:59:02.845Z,4.50
2023-02-15T01:01:30.120Z,4.50
2023-02-15T01:03:57.322Z,4.50
2023-02-15T01:06:24.413Z,4.50
2023-02-15T01:08:51.342Z,4.50
2023-02-15T01:11:24.988Z,4.50
2023-02-15T01:13:55.969Z,4.50
2023-02-15T01:16:25.813Z,4.50
2023-02-15T01:18:53.354Z,4.50
2023-02-15T01:21:24.192Z,4.50
2023-02-15T01:23:51.229Z,4.50
2023-02-15T01:26:18.808Z,4.50
2023-02-15T01:28:46.342Z,4.40
2023-02-15T01:31:17.040Z,4.40
2023-02-15T01:33:47.652Z,4.40
2023-02-15T01:36:15.557Z,4.40
2023-02-15T01:38:42.704Z,4.30
2023-02-15T01:41:23.873Z,4.30
2023-02-15T01:43:56.040Z,4.30
2023-02-15T01:46:36.756Z,4.30
2023-02-15T01:49:14.406Z,4.30
2023-02-15T01:51:44.567Z,4.30
2023-02-15T01:54:32.832Z,4.30
2023-02-15T01:57:06.283Z,4.30
2023-02-15T01:59:36.200Z,4.30
2023-02-15T02:02:04.985Z,4.30
2023-02-15T02:05:03.944Z,4.30
2023-02-15T02:07:35.353Z,4.30
2023-02-15T02:10:04.323Z,4.30
2023-02-15T02:12:34.660Z,4.30
2023-02-15T02:15:02.430Z,4.30
2023-02-15T02:18:11.548Z,4.30
2023-02-15T02:21:27.854Z,4.30
2023-02-15T02:24:25.622Z,4.30
2023-02-15T02:27:34.736Z,4.30
2023-02-15T02:30:37.836Z,4.30
2023-02-15T02:33:29.596Z,4.30
2023-02-15T02:36:33.485Z,4.30
2023-02-15T02:39:28.923Z,4.20
2023-02-15T02:42:16.311Z,4.20
2023-02-15T02:44:55.048Z,4.20
2023-02-15T02:47:39.232Z,4.20
2023-02-15T02:50:10.772Z,4.20
2023-02-15T02:52:45.562Z,4.20
2023-02-15T02:55:49.595Z,4.20
2023-02-15T02:58:37.908Z,4.20
2023-02-15T03:01:21.915Z,4.20
2023-02-15T03:03:54.247Z,4.20
2023-02-15T03:06:32.242Z,4.20
2023-02-15T03:09:15.389Z,4.20
2023-02-15T03:11:45.026Z,4.20
2023-02-15T03:14:14.762Z,4.20
2023-02-15T03:16:44.923Z,4.20
2023-02-15T03:19:19.723Z,4.10
2023-02-15T03:21:59.000Z,4.10
2023-02-15T03:24:38.326Z,4.10
2023-02-15T03:27:12.789Z,4.10
2023-02-15T03:29:40.937Z,4.10
2023-02-15T03:32:12.606Z,4.10
2023-02-15T03:34:40.052Z,4.10
2023-02-15T03:37:37.576Z,4.00
2023-02-15T03:40:51.577Z,4.00
2023-02-15T03:43:25.060Z,4.00
2023-02-15T03:46:00.251Z,4.00
2023-02-15T03:48:38.440Z,4.00
2023-02-15T03:51:32.331Z,4.00
2023-02-15T03:54:04.844Z,3.90
2023-02-15T03:56:34.542Z,3.90
2023-02-15T03:59:20.359Z,3.90
2023-02-15T04:02:02.521Z,3.90
2023-02-15T04:04:44.105Z,3.90
2023-02-15T04:07:11.167Z,3.90
2023-02-15T04:09:56.477Z,3.90
2023-02-15T04:12:23.942Z,3.90
2023-02-15T04:15:09.314Z,3.90
2023-02-15T04:17:38.577Z,3.80
2023-02-15T04:20:25.193Z,3.90
2023-02-15T04:23:10.836Z,3.80
2023-02-15T04:25:38.000Z,3.90
2023-02-15T04:28:05.082Z,3.90
2023-02-15T04:30:32.124Z,3.90
2023-02-15T04:32:59.302Z,3.90
2023-02-15T04:35:26.795Z,3.80
2023-02-15T04:37:53.759Z,3.80
2023-02-15T04:40:20.954Z,3.80
2023-02-15T04:42:51.056Z,3.80
2023-02-15T04:45:18.731Z,3.80
2023-02-15T04:47:46.162Z,3.80
2023-02-15T04:50:13.401Z,3.80
2023-02-15T04:52:40.509Z,3.80
2023-02-15T04:55:08.191Z,3.80
2023-02-15T04:57:35.196Z,3.80
2023-02-15T05:00:02.330Z,3.80
2023-02-15T05:02:29.311Z,3.80
2023-02-15T05:04:56.206Z,3.80
2023-02-15T05:07:23.136Z,3.90
2023-02-15T05:09:50.777Z,3.80
2023-02-15T05:12:17.697Z,3.80
2023-02-15T05:14:44.718Z,3.90
2023-02-15T05:17:11.711Z,3.80
2023-02-15T05:19:38.736Z,3.80
2023-02-15T05:22:05.799Z,3.80
2023-02-15T05:24:51.050Z,3.80
2023-02-15T05:27:36.758Z,3.70
2023-02-15T05:30:04.510Z,3.70
2023-02-15T05:32:31.690Z,3.70
2023-02-15T05:34:58.865Z,3.70
2023-02-15T05:37:25.726Z,3.70
2023-02-15T05:39:52.761Z,3.60
2023-02-15T05:42:19.670Z,3.60
2023-02-15T05:44:46.729Z,3.60
2023-02-15T05:47:13.704Z,3.60
2023-02-15T05:49:40.914Z,3.60
2023-02-15T05:52:09.126Z,3.50
2023-02-15T05:54:36.135Z,3.50
2023-02-15T05:57:03.336Z,3.50
2023-02-15T05:59:30.461Z,3.50
2023-02-15T06:01:57.474Z,3.50
2023-02-15T06:04:24.488Z,3.50
2023-02-15T06:06:52.031Z,3.50
2023-02-15T06:09:19.345Z,3.50
2023-02-15T06:11:47.519Z,3.50
2023-02-15T06:14:14.618Z,3.60
2023-02-15T06:16:41.658Z,3.50
2023-02-15T06:19:08.693Z,3.60
2023-02-15T06:21:35.907Z,3.60
2023-02-15T06:24:03.001Z,3.60
2023-02-15T06:26:30.065Z,3.60
2023-02-15T06:28:57.187Z,3.60
2023-02-15T06:31:24.318Z,3.60
2023-02-15T06:33:51.396Z,3.60
2023-02-15T06:36:18.421Z,3.60
2023-02-15T06:38:45.472Z,3.60
2023-02-15T06:41:12.607Z,3.60
2023-02-15T06:43:41.036Z,3.60
2023-02-15T06:46:08.615Z,3.60
2023-02-15T06:48:35.779Z,3.60
2023-02-15T06:51:02.956Z,3.60
2023-02-15T06:53:30.076Z,3.60
2023-02-15T06:56:09.996Z,3.60
2023-02-15T06:58:38.955Z,3.60
2023-02-15T07:01:06.714Z,3.60
2023-02-15T07:03:34.369Z,3.70
2023-02-15T07:06:06.874Z,3.70
2023-02-15T07:08:33.960Z,3.60
2023-02-15T07:11:21.388Z,3.70
2023-02-15T07:13:48.670Z,3.70
2023-02-15T07:16:15.857Z,3.70
2023-02-15T07:18:43.090Z,3.70
2023-02-15T07:21:10.192Z,3.70
2023-02-15T07:23:39.436Z,3.80
2023-02-15T07:26:07.717Z,3.80
2023-02-15T07:28:35.828Z,3.80
2023-02-15T07:31:06.772Z,3.80
2023-02-15T07:33:35.214Z,3.80
2023-02-15T07:36:04.862Z,3.90
2023-02-15T07:38:37.537Z,3.90
2023-02-15T07:41:09.135Z,3.90
2023-02-15T07:43:39.355Z,4.00
2023-02-15T07:46:13.522Z,4.00
2023-02-15T07:48:44.150Z,4.10
2023-02-15T07:51:12.537Z,4.10
2023-02-15T07:53:40.399Z,4.20
2023-02-15T07:56:12.492Z,4.30
2023-02-15T07:58:51.743Z,4.30
2023-02-15T08:01:34.654Z,4.30
2023-02-15T08:04:02.143Z,4.40
2023-02-15T08:06:32.515Z,4.40
2023-02-15T08:08:59.821Z,4.50
2023-02-15T08:11:33.663Z,4.50
2023-02-15T08:14:07.797Z,4.50
2023-02-15T08:16:46.989Z,4.60
2023-02-15T08:19:23.640Z,4.70
2023-02-15T08:21:57.959Z,4.70
2023-02-15T08:24:29.675Z,4.80
2023-02-15T08:26:57.506Z,4.80
2023-02-15T08:29:28.305Z,4.90
2023-02-15T08:32:03.717Z,4.90
2023-02-15T08:34:34.802Z,4.90
2023-02-15T08:37:01.934Z,5.00
2023-02-15T08:39:29.686Z,5.00
2023-02-15T08:41:56.823Z,5.00
2023-02-15T08:44:23.987Z,5.10
2023-02-15T08:46:51.431Z,5.10
2023-02-15T08:49:21.954Z,5.10
2023-02-15T08:51:50.560Z,5.20
2023-02-15T08:54:21.549Z,5.30
2023-02-15T08:56:49.095Z,5.30
2023-02-15T08:59:20.794Z,5.30
2023-02-15T09:01:50.232Z,5.40
2023-02-15T09:04:17.736Z,5.50
2023-02-15T09:06:48.513Z,5.50
2023-02-15T09:09:18.510Z,5.60
2023-02-15T09:11:48.873Z,5.70
2023-02-15T09:14:20.984Z,5.70
2023-02-15T09:16:50.072Z,5.70
2023-02-15T09:19:18.931Z,5.80
2023-02-15T09:21:46.305Z,5.80
2023-02-15T09:24:16.002Z,5.90
2023-02-15T09:26:46.289Z,5.90
2023-02-15T09:29:15.624Z,6.00
2023-02-15T09:31:49.953Z,6.00
2023-02-15T09:34:20.511Z,6.00
2023-02-15T09:36:48.920Z,6.10
2023-02-15T09:39:24.802Z,6.10
2023-02-15T09:42:41.995Z,6.20
2023-02-15T09:45:40.560Z,6.30
2023-02-15T09:48:47.310Z,6.30
2023-02-15T09:52:16.277Z,6.30
2023-02-15T09:55:06.062Z,6.40
2023-02-15T09:57:54.669Z,6.40
2023-02-15T10:01:11.137Z,6.50
2023-02-15T10:03:51.751Z,6.50
2023-02-15T10:06:50.513Z,6.50
2023-02-15T10:09:47.743Z,6.60
2023-02-15T10:12:31.095Z,6.60
2023-02-15T10:15:12.532Z,6.70
2023-02-15T10:18:05.357Z,6.80
2023-02-15T10:21:00.860Z,6.90
2023-02-15T10:23:56.234Z,7.00
2023-02-15T10:26:45.442Z,7.10
2023-02-15T10:29:37.414Z,7.20
2023-02-15T10:32:24.943Z,7.40
2023-02-15T10:35:20.289Z,7.50
2023-02-15T10:38:04.783Z,7.60
2023-02-15T10:41:03.831Z,7.70
2023-02-15T10:44:21.616Z,7.80
2023-02-15T10:47:25.107Z,7.90
2023-02-15T10:50:35.213Z,8.00
2023-02-15T10:53:29.801Z,8.10
2023-02-15T10:56:21.398Z,8.20
2023-02-15T10:59:20.005Z,8.30
2023-02-15T11:02:18.783Z,8.40
2023-02-15T11:04:51.869Z,8.40
2023-02-15T11:07:34.868Z,8.50
2023-02-15T11:10:39.520Z,8.60
2023-02-15T11:13:12.709Z,8.60
2023-02-15T11:15:55.320Z,8.70
2023-02-15T11:18:28.327Z,8.70
2023-02-15T11:20:59.159Z,8.80
2023-02-15T11:23:27.377Z,8.80
2023-02-15T11:26:20.709Z,8.90
2023-02-15T11:28:56.061Z,8.90
2023-02-15T11:31:26.772Z,9.00
2023-02-15T11:34:05.786Z,9.00
2023-02-15T11:36:41.568Z,9.00
2023-02-15T11:39:19.087Z,9.10
2023-02-15T11:41:52.992Z,9.10
2023-02-15T11:44:48.377Z,9.20
2023-02-15T11:47:15.462Z,9.20
2023-02-15T11:49:42.532Z,9.30
2023-02-15T11:52:15.470Z,9.30
2023-02-15T11:54:46.437Z,9.40
2023-02-15T11:57:25.053Z,9.50
2023-02-15T12:00:01.829Z,9.50
2023-02-15T12:02:38.599Z,9.60
2023-02-15T12:05:14.564Z,9.70
2023-02-15T12:08:05.120Z,9.70
2023-02-15T12:10:48.969Z,9.90
2023-02-15T12:13:20.338Z,10.10
2023-02-15T12:15:51.467Z,10.30
2023-02-15T12:18:31.889Z,10.60
2023-02-15T12:21:04.435Z,10.90
2023-02-15T12:23:34.152Z,11.30
2023-02-15T12:26:01.544Z,11.80
2023-02-15T12:28:38.395Z,12.50
2023-02-15T12:31:38.577Z,13.20
2023-02-15T12:34:14.083Z,14.00
2023-02-15T12:36:51.720Z,14.80
2023-02-15T12:39:36.746Z,15.60
2023-02-15T12:42:17.320Z,16.50
2023-02-15T12:45:00.877Z,17.30
2023-02-15T12:47:31.008Z,18.00
2023-02-15T12:50:23.952Z,18.70
2023-02-15T12:53:08.766Z,19.50
2023-02-15T12:55:36.320Z,20.40
2023-02-15T12:58:26.021Z,21.10
2023-02-15T13:01:22.785Z,21.80
2023-02-15T13:04:03.295Z,22.60
2023-02-15T13:06:36.717Z,23.30
2023-02-15T13:09:15.232Z,23.90
2023-02-15T13:11:44.864Z,24.50
2023-02-15T13:14:30.347Z,25.00
2023-02-15T13:17:01.768Z,25.60
2023-02-15T13:19:46.050Z,26.00
2023-02-15T13:22:18.767Z,26.40
2023-02-15T13:24:54.808Z,26.80
2023-02-15T13:27:25.245Z,27.00
2023-02-15T13:30:00.622Z,27.30
2023-02-15T13:32:39.139Z,27.50
2023-02-15T13:35:09.807Z,27.60
2023-02-15T13:37:51.805Z,27.80
2023-02-15T13:41:05.563Z,27.90
2023-02-15T13:44:13.453Z,28.00
2023-02-15T13:47:01.821Z,28.00
2023-02-15T13:50:00.369Z,28.10
2023-02-15T13:52:30.759Z,28.10
2023-02-15T13:55:09.680Z,28.10
2023-02-15T13:58:08.035Z,28.10
2023-02-15T14:00:40.747Z,28.00
2023-02-15T14:03:22.535Z,28.00
2023-02-15T14:06:04.284Z,28.00
2023-02-15T14:08:44.149Z,28.00
2023-02-15T14:11:27.774Z,28.00
2023-02-15T14:14:03.753Z,28.00
2023-02-15T14:17:20.515Z,27.90
2023-02-15T14:20:21.217Z,27.90
2023-02-15T14:22:56.287Z,27.90
2023-02-15T14:25:50.696Z,27.80
2023-02-15T14:28:42.861Z,27.70
2023-02-15T14:31:13.654Z,27.60
2023-02-15T14:33:50.637Z,27.50
2023-02-15T14:36:20.915Z,27.30
2023-02-15T14:39:32.649Z,27.20
2023-02-15T14:42:16.893Z,27.00
2023-02-15T14:45:20.371Z,26.80
2023-02-15T14:48:06.186Z,26.70
2023-02-15T14:50:38.112Z,26.60
2023-02-15T14:53:33.098Z,26.50
2023-02-15T14:56:08.375Z,26.40
2023-02-15T14:58:35.288Z,26.30
2023-02-15T15:01:08.945Z,26.20
2023-02-15T15:03:36.614Z,26.10
2023-02-15T15:06:06.147Z,25.90
2023-02-15T15:08:41.315Z,25.80
2023-02-15T15:11:52.167Z,25.50
2023-02-15T15:14:34.431Z,24.80
2023-02-15T15:17:04.721Z,24.00
2023-02-15T15:19:54.021Z,23.10
2023-02-15T15:22:29.916Z,22.00
2023-02-15T15:25:00.536Z,21.00
2023-02-15T15:27:46.681Z,20.00
2023-02-15T15:30:19.997Z,18.90
2023-02-15T15:32:55.985Z,18.00
2023-02-15T15:36:06.513Z,17.20
2023-02-15T15:39:03.155Z,16.40
2023-02-15T15:42:02.194Z,15.60
2023-02-15T15:45:15.811Z,14.80
2023-02-15T15:48:01.930Z,14.20
2023-02-15T15:50:33.932Z,13.60
2023-02-15T15:53:03.752Z,13.10
2023-02-15T15:55:33.263Z,12.60
2023-02-15T15:58:07.237Z,12.20
2023-02-15T16:00:44.656Z,11.80
2023-02-15T16:03:24.351Z,11.60
2023-02-15T16:05:55.308Z,11.10
2023-02-15T16:08:34.475Z,10.80
2023-02-15T16:11:15.550Z,10.60
2023-02-15T16:13:44.107Z,10.30
2023-02-15T16:16:14.556Z,10.00
2023-02-15T16:18:43.482Z,9.80
2023-02-15T16:21:23.669Z,9.60
2023-02-15T16:24:19.853Z,9.30
2023-02-15T16:27:28.677Z,9.10
2023-02-15T16:29:55.791Z,8.90
2023-02-15T16:32:26.577Z,8.60
2023-02-15T16:35:03.170Z,8.40
2023-02-15T16:37:35.514Z,8.20
2023-02-15T16:40:03.072Z,8.00
2023-02-15T16:42:30.327Z,7.80
2023-02-15T16:45:10.129Z,7.70
2023-02-15T16:47:44.737Z,7.50
2023-02-15T16:50:22.019Z,7.30
2023-02-15T16:52:49.104Z,7.20
2023-02-15T16:55:25.789Z,7.10
2023-02-15T16:57:59.978Z,6.90
2023-02-15T17:00:35.475Z,6.80
2023-02-15T17:03:07.454Z,6.60
2023-02-15T17:06:01.851Z,6.50
2023-02-15T17:09:06.895Z,6.40
2023-02-15T17:11:43.538Z,6.20
2023-02-15T17:14:10.955Z,6.10
2023-02-15T17:16:50.682Z,6.00
2023-02-15T17:19:54.726Z,5.90
2023-02-15T17:22:26.111Z,5.80
2023-02-15T17:25:01.725Z,5.70
2023-02-15T17:27:32.728Z,5.60
2023-02-15T17:30:13.968Z,5.50
2023-02-15T17:32:59.082Z,5.40
2023-02-15T17:35:28.872Z,5.30
2023-02-15T17:38:20.959Z,5.20
2023-02-15T17:40:48.307Z,5.10
2023-02-15T17:43:15.221Z,5.00
2023-02-15T17:45:49.338Z,4.90
2023-02-15T17:48:32.912Z,4.80
2023-02-15T17:51:03.928Z,4.80
2023-02-15T17:53:31.754Z,4.70
2023-02-15T17:55:59.469Z,4.60
2023-02-15T17:58:26.489Z,4.50
2023-02-15T18:01:16.428Z,4.50
2023-02-15T18:04:09.852Z,4.40
2023-02-15T18:06:58.215Z,4.30
2023-02-15T18:09:44.578Z,4.20
2023-02-15T18:12:21.495Z,4.10
2023-02-15T18:14:50.043Z,4.10
2023-02-15T18:17:18.554Z,4.00
2023-02-15T18:19:46.780Z,3.90
2023-02-15T18:22:18.906Z,3.90
2023-02-15T18:24:47.999Z,3.80
2023-02-15T18:27:16.824Z,3.80
2023-02-15T18:29:43.968Z,3.80
2023-02-15T18:32:19.940Z,3.70
2023-02-15T18:34:48.680Z,3.70
2023-02-15T18:37:19.966Z,3.70
2023-02-15T18:39:49.916Z,3.70
2023-02-15T18:42:35.142Z,3.60
2023-02-15T18:45:33.212Z,3.60
2023-02-15T18:48:00.659Z,3.60
2023-02-15T18:50:32.988Z,3.60
2023-02-15T18:53:00.175Z,3.50
2023-02-15T18:55:28.413Z,3.50
2023-02-15T18:57:57.359Z,3.50
2023-02-15T19:00:34.914Z,3.50
2023-02-15T19:03:02.881Z,3.50
2023-02-15T19:05:31.085Z,3.50
2023-02-15T19:08:00.311Z,3.50
2023-02-15T19:10:30.555Z,3.50
2023-02-15T19:12:58.272Z,3.40
2023-02-15T19:15:30.385Z,3.40
2023-02-15T19:17:57.544Z,3.40
2023-02-15T19:20:41.737Z,3.30
2023-02-15T19:23:22.583Z,3.20
2023-02-15T19:25:51.817Z,3.20
2023-02-15T19:28:32.767Z,3.10
2023-02-15T19:30:59.919Z,3.10
2023-02-15T19:33:27.217Z,3.00
2023-02-15T19:35:57.473Z,2.90
2023-02-15T19:38:30.707Z,2.90
2023-02-15T19:41:06.212Z,2.90
2023-02-15T19:43:35.156Z,2.80
2023-02-15T19:46:02.447Z,2.80
2023-02-15T19:48:29.648Z,2.80
2023-02-15T19:50:57.067Z,2.70
2023-02-15T19:53:27.781Z,2.70
2023-02-15T19:55:55.323Z,2.60
2023-02-15T19:58:22.484Z,2.60
2023-02-15T20:00:51.945Z,2.60
2023-02-15T20:03:19.232Z,2.50
2023-02-15T20:05:46.926Z,2.50
2023-02-15T20:08:22.581Z,2.50
2023-02-15T20:10:50.280Z,2.40
2023-02-15T20:13:19.580Z,2.40
2023-02-15T20:15:47.310Z,2.30
2023-02-15T20:18:14.429Z,2.30
2023-02-15T20:20:49.799Z,2.30
2023-02-15T20:23:24.000Z,2.20
2023-02-15T20:25:51.150Z,2.20
2023-02-15T20:28:22.218Z,2.20
2023-02-15T20:30:50.270Z,2.20
2023-02-15T20:33:19.142Z,2.10
2023-02-15T20:35:50.348Z,2.10
2023-02-15T20:38:20.682Z,2.10
2023-02-15T20:41:06.521Z,2.10
2023-02-15T20:43:34.746Z,2.00
2023-02-15T20:46:03.076Z,2.00
2023-02-15T20:48:30.417Z,2.00
2023-02-15T20:51:00.590Z,2.00
2023-02-15T20:53:29.243Z,2.00
2023-02-15T20:55:56.942Z,2.00
2023-02-15T20:58:28.179Z,2.00
2023-02-15T21:00:58.135Z,1.90
2023-02-15T21:03:30.886Z,1.90
2023-02-15T21:05:59.022Z,1.90
2023-02-15T21:08:26.717Z,1.90
2023-02-15T21:10:54.616Z,1.90
2023-02-15T21:13:30.768Z,1.80
2023-02-15T21:15:59.110Z,1.80
2023-02-15T21:18:33.514Z,1.80
2023-02-15T21:21:05.324Z,1.80
2023-02-15T21:23:39.620Z,1.80
2023-02-15T21:26:14.416Z,1.70
2023-02-15T21:28:41.956Z,1.80
2023-02-15T21:31:22.324Z,1.70
2023-02-15T21:33:49.585Z,1.70
2023-02-15T21:36:23.932Z,1.70
2023-02-15T21:38:53.636Z,1.70
2023-02-15T21:41:42.463Z,1.70
2023-02-15T21:44:41.134Z,1.70
2023-02-15T21:47:42.703Z,1.70
2023-02-15T21:50:36.272Z,1.70
2023-02-15T21:53:05.646Z,1.60
2023-02-15T21:55:33.230Z,1.60
2023-02-15T21:58:01.130Z,1.60
2023-02-15T22:00:28.710Z,1.70
2023-02-15T22:02:58.804Z,1.60
2023-02-15T22:05:31.379Z,1.60
2023-02-15T22:08:00.730Z,1.50
2023-02-15T22:10:31.501Z,1.60
2023-02-15T22:13:01.563Z,1.60
2023-02-15T22:15:35.337Z,1.60
2023-02-15T22:18:03.419Z,1.60
2023-02-15T22:20:30.347Z,1.60
2023-02-15T22:22:57.234Z,1.60
2023-02-15T22:25:26.005Z,1.60
2023-02-15T22:27:54.639Z,1.60
2023-02-15T22:30:32.144Z,1.50
2023-02-15T22:33:00.451Z,1.60
2023-02-15T22:35:30.991Z,1.50
2023-02-15T22:37:58.445Z,1.60
2023-02-15T22:40:32.820Z,1.50
2023-02-15T22:43:05.622Z,1.50
2023-02-15T22:45:36.190Z,1.50
2023-02-15T22:48:03.452Z,1.50
2023-02-15T22:50:33.512Z,1.50
2023-02-15T22:53:02.340Z,1.40
2023-02-15T22:55:36.709Z,1.40
2023-02-15T22:58:04.666Z,1.40
2023-02-15T23:00:40.208Z,1.40
2023-02-15T23:03:26.020Z,1.30
2023-02-15T23:05:53.303Z,1.30
2023-02-15T23:08:20.944Z,1.30
2023-02-15T23:10:55.657Z,1.30
2023-02-15T23:13:29.425Z,1.30
2023-02-15T23:16:02.777Z,1.20
2023-02-15T23:18:42.373Z,1.20
2023-02-15T23:21:31.799Z,1.20
2023-02-15T23:24:22.569Z,1.20
2023-02-15T23:26:50.459Z,1.20
2023-02-15T23:29:23.503Z,1.10
2023-02-15T23:31:53.640Z,1.10
2023-02-15T23:34:30.193Z,1.10
2023-02-15T23:36:57.674Z,1.00
2023-02-15T23:39:46.329Z,1.00
2023-02-15T23:42:15.283Z,1.00
2023-02-15T23:44:44.892Z,0.90
2023-02-15T23:47:46.692Z,0.90
2023-02-15T23:50:19.804Z,0.80
2023-02-15T23:52:47.374Z,0.80
2023-02-15T23:55:15.878Z,0.80
2023-02-15T23:57:43.877Z,0.80
